Terminal Aerodrome Forecast
Issued by NWS

Home | Current Version | Previous Version | Text Only | Print | Product List | Glossary On
Versions: 1 2 3 4 5 6 7 8 9 10 11 12 13
000
FTUS43 KIND 021725
TAFBMG
TAF
KBMG 021725Z 0218/0318 24009KT P6SM SCT250
     FM030000 22005KT P6SM SCT250
     FM030900 22006KT P6SM BKN100
     FM031400 28007KT P6SM SCT050 BKN100=

USA.gov is the U.S. government's official web portal to all federal, state and local government web resources and services.